createdAt,value
2022-09-13T00:00:12.494Z,168
2022-09-13T00:00:47.477Z,171
2022-09-13T00:01:18.864Z,171
2022-09-13T00:01:50.967Z,177
2022-09-13T00:02:22.848Z,182
2022-09-13T00:02:55.659Z,173
2022-09-13T00:03:27.064Z,183
2022-09-13T00:03:49.432Z,167
2022-09-13T00:04:13.573Z,177
2022-09-13T00:04:48.562Z,186
2022-09-13T00:05:19.300Z,179
2022-09-13T00:05:51.056Z,185
2022-09-13T00:06:23.338Z,174
2022-09-13T00:06:55.034Z,179
2022-09-13T00:07:27.306Z,160
2022-09-13T00:07:50.063Z,170
2022-09-13T00:08:12.452Z,173
2022-09-13T00:08:46.903Z,181
2022-09-13T00:09:18.750Z,178
2022-09-13T00:09:50.729Z,177
2022-09-13T00:10:22.946Z,178
2022-09-13T00:10:54.865Z,153
2022-09-13T00:11:27.475Z,190
2022-09-13T00:11:49.522Z,156
2022-09-13T00:12:12.335Z,85
2022-09-13T00:12:47.388Z,188
2022-09-13T00:13:19.401Z,130
2022-09-13T00:13:51.233Z,177
2022-09-13T00:14:24.645Z,138
2022-09-13T00:14:56.715Z,157
2022-09-13T00:15:28.100Z,181
2022-09-13T00:15:50.058Z,174
2022-09-13T00:16:12.401Z,153
2022-09-13T00:16:46.858Z,153
2022-09-13T00:17:18.583Z,163
2022-09-13T00:17:50.722Z,182
2022-09-13T00:18:22.716Z,172
2022-09-13T00:18:55.738Z,182
2022-09-13T00:19:28.456Z,158
2022-09-13T00:19:49.333Z,171
2022-09-13T00:20:12.014Z,142
2022-09-13T00:20:46.705Z,179
2022-09-13T00:21:18.777Z,164
2022-09-13T00:21:51.149Z,162
2022-09-13T00:22:23.250Z,175
2022-09-13T00:22:55.236Z,193
2022-09-13T00:23:29.290Z,176
2022-09-13T00:23:49.506Z,163
2022-09-13T00:24:11.851Z,145
2022-09-13T00:24:47.348Z,177
2022-09-13T00:25:18.707Z,155
2022-09-13T00:25:50.828Z,188
2022-09-13T00:26:22.939Z,189
2022-09-13T00:26:55.028Z,155
2022-09-13T00:27:26.632Z,173
2022-09-13T00:27:49.256Z,157
2022-09-13T00:28:11.866Z,166
2022-09-13T00:28:46.765Z,165
2022-09-13T00:29:18.766Z,165
2022-09-13T00:29:51.136Z,177
2022-09-13T00:30:24.146Z,169
2022-09-13T00:30:55.449Z,184
2022-09-13T00:31:26.896Z,164
2022-09-13T00:31:49.650Z,157
2022-09-13T00:32:11.889Z,182
2022-09-13T00:32:47.422Z,187
2022-09-13T00:33:19.147Z,188
2022-09-13T00:33:50.934Z,176
2022-09-13T00:34:23.722Z,169
2022-09-13T00:34:54.912Z,185
2022-09-13T00:35:26.768Z,178
2022-09-13T00:35:49.379Z,168
2022-09-13T00:36:12.797Z,172
2022-09-13T00:36:46.800Z,149
2022-09-13T00:37:18.780Z,154
2022-09-13T00:37:51.209Z,154
2022-09-13T00:38:22.935Z,166
2022-09-13T00:38:54.668Z,172
2022-09-13T00:39:27.519Z,162
2022-09-13T00:39:50.408Z,159
2022-09-13T00:40:14.958Z,168
2022-09-13T00:40:46.751Z,159
2022-09-13T00:41:20.138Z,171
2022-09-13T00:41:51.129Z,152
2022-09-13T00:42:24.170Z,155
2022-09-13T00:42:54.842Z,180
2022-09-13T00:45:51.030Z,177
2022-09-13T00:46:22.679Z,175
2022-09-13T00:46:54.802Z,152
2022-09-13T00:47:27.556Z,165
2022-09-13T00:47:50.152Z,152
2022-09-13T00:48:12.381Z,169
2022-09-13T00:48:46.727Z,175
2022-09-13T00:49:18.687Z,181
2022-09-13T00:49:51.560Z,156
2022-09-13T00:50:22.760Z,155
2022-09-13T00:50:55.021Z,163
2022-09-13T00:51:26.782Z,187
2022-09-13T00:51:49.501Z,172
2022-09-13T00:52:13.576Z,175
2022-09-13T00:52:46.905Z,175
2022-09-13T00:53:18.754Z,186
2022-09-13T00:53:50.908Z,152
2022-09-13T00:54:22.777Z,143
2022-09-13T00:54:54.744Z,189
2022-09-13T00:55:26.921Z,180
2022-09-13T00:55:49.634Z,167
2022-09-13T00:56:11.935Z,160
2022-09-13T00:56:47.079Z,170
2022-09-13T00:57:18.775Z,178
2022-09-13T00:57:51.554Z,170
2022-09-13T00:58:22.724Z,171
2022-09-13T00:58:54.675Z,155
2022-09-13T00:59:26.811Z,180
2022-09-13T00:59:49.512Z,176
2022-09-13T01:00:12.259Z,172
2022-09-13T01:00:46.872Z,161
2022-09-13T01:01:18.804Z,172
2022-09-13T01:01:50.603Z,171
2022-09-13T01:02:23.089Z,198
2022-09-13T01:02:54.651Z,181
2022-09-13T01:03:27.725Z,165
2022-09-13T01:03:50.654Z,157
2022-09-13T01:04:13.207Z,127
2022-09-13T01:04:47.609Z,153
2022-09-13T01:05:18.905Z,175
2022-09-13T01:05:50.782Z,167
2022-09-13T01:06:22.667Z,173
2022-09-13T01:06:55.701Z,182
2022-09-13T01:07:27.359Z,133
2022-09-13T01:07:49.983Z,179
2022-09-13T01:08:12.476Z,146
2022-09-13T01:08:46.824Z,157
2022-09-13T01:09:18.951Z,123
2022-09-13T01:09:50.669Z,120
2022-09-13T01:10:23.097Z,158
2022-09-13T01:10:54.975Z,165
2022-09-13T01:11:27.247Z,170
2022-09-13T01:11:49.837Z,172
2022-09-13T01:12:12.374Z,171
2022-09-13T01:12:47.477Z,154
2022-09-13T01:13:19.251Z,176
2022-09-13T01:13:50.959Z,154
2022-09-13T01:14:22.654Z,144
2022-09-13T01:14:56.275Z,164
2022-09-13T01:15:26.854Z,176
2022-09-13T01:15:49.443Z,184
2022-09-13T01:16:12.295Z,149
2022-09-13T01:16:47.974Z,184
2022-09-13T01:17:18.663Z,174
2022-09-13T01:17:50.523Z,193
2022-09-13T01:18:22.691Z,171
2022-09-13T01:18:55.293Z,174
2022-09-13T01:19:28.264Z,186
2022-09-13T01:19:49.442Z,171
2022-09-13T01:20:12.379Z,175
2022-09-13T01:20:47.299Z,191
2022-09-13T01:21:18.635Z,201
2022-09-13T01:21:50.760Z,169
2022-09-13T01:22:22.642Z,170
2022-09-13T01:22:54.678Z,176
2022-09-13T01:23:26.637Z,174
2022-09-13T01:23:49.509Z,164
2022-09-13T01:24:11.747Z,173
2022-09-13T01:24:46.706Z,173
2022-09-13T01:25:18.787Z,158
2022-09-13T01:25:51.272Z,183
2022-09-13T01:26:23.251Z,162
2022-09-13T01:26:56.159Z,185
2022-09-13T01:27:27.090Z,170
2022-09-13T01:27:49.974Z,169
2022-09-13T01:28:12.254Z,191
2022-09-13T01:28:47.186Z,162
2022-09-13T01:29:18.734Z,173
2022-09-13T01:29:50.721Z,174
2022-09-13T01:30:22.773Z,159
2022-09-13T01:30:54.708Z,188
2022-09-13T01:31:26.901Z,165
2022-09-13T01:31:49.807Z,188
2022-09-13T01:32:12.445Z,159
2022-09-13T01:32:46.629Z,167
2022-09-13T01:33:19.063Z,163
2022-09-13T01:33:50.711Z,167
2022-09-13T01:34:22.827Z,165
2022-09-13T01:34:54.780Z,165
2022-09-13T01:35:27.452Z,169
2022-09-13T01:35:50.030Z,169
2022-09-13T01:36:12.787Z,174
2022-09-13T01:36:54.737Z,154
2022-09-13T01:37:17.180Z,171
2022-09-13T01:37:51.187Z,162
2022-09-13T01:38:23.024Z,186
2022-09-13T01:38:55.042Z,175
2022-09-13T01:39:26.676Z,153
2022-09-13T01:39:49.411Z,199
2022-09-13T01:40:17.505Z,170
2022-09-13T01:40:46.811Z,198
2022-09-13T01:41:20.405Z,141
2022-09-13T01:41:50.654Z,170
2022-09-13T01:42:23.438Z,185
2022-09-13T01:42:54.643Z,154
2022-09-13T01:43:27.264Z,163
2022-09-13T01:43:49.866Z,181
2022-09-13T01:44:12.263Z,170
2022-09-13T01:44:46.592Z,170
2022-09-13T01:45:18.737Z,189
2022-09-13T01:45:50.942Z,154
2022-09-13T01:46:22.492Z,175
2022-09-13T01:46:54.752Z,149
2022-09-13T01:47:26.801Z,194
2022-09-13T01:47:49.524Z,173
2022-09-13T01:48:12.667Z,168
2022-09-13T01:48:46.995Z,151
2022-09-13T01:49:19.604Z,159
2022-09-13T01:49:50.789Z,175
2022-09-13T01:50:23.072Z,187
2022-09-13T01:50:54.679Z,174
2022-09-13T01:51:26.716Z,174
2022-09-13T01:51:49.411Z,180
2022-09-13T01:52:11.978Z,183
2022-09-13T01:52:46.711Z,174
2022-09-13T01:53:18.970Z,179
2022-09-13T01:53:50.583Z,172
2022-09-13T01:54:22.611Z,168
2022-09-13T01:54:55.119Z,158
2022-09-13T01:55:26.953Z,162
2022-09-13T01:55:49.381Z,185
2022-09-13T01:56:11.861Z,178
2022-09-13T01:56:46.874Z,168
2022-09-13T01:57:18.733Z,189
2022-09-13T01:57:50.805Z,172
2022-09-13T01:58:22.663Z,170
2022-09-13T01:58:54.655Z,175
2022-09-13T01:59:26.962Z,179
2022-09-13T01:59:49.903Z,179
2022-09-13T02:00:15.513Z,153
2022-09-13T02:00:47.514Z,167
2022-09-13T02:01:18.652Z,192
2022-09-13T02:01:53.817Z,179
2022-09-13T02:02:23.123Z,149
2022-09-13T02:02:55.156Z,168
2022-09-13T02:03:26.750Z,147
2022-09-13T02:03:49.556Z,174
2022-09-13T02:04:13.330Z,183
2022-09-13T02:04:47.026Z,195
2022-09-13T02:05:19.119Z,170
2022-09-13T02:05:50.622Z,183
2022-09-13T02:06:24.246Z,183
2022-09-13T02:06:54.692Z,169
2022-09-13T02:07:26.785Z,156
2022-09-13T02:07:49.536Z,165
2022-09-13T02:08:11.905Z,156
2022-09-13T02:08:46.691Z,145
2022-09-13T02:09:21.439Z,181
2022-09-13T02:09:50.449Z,184
2022-09-13T02:10:22.633Z,208
2022-09-13T02:10:54.924Z,176
2022-09-13T02:11:26.886Z,162
2022-09-13T02:11:49.536Z,180
2022-09-13T02:12:12.707Z,180
2022-09-13T02:12:46.780Z,185
2022-09-13T02:13:18.915Z,175
2022-09-13T02:13:50.922Z,187
2022-09-13T02:14:22.869Z,113
2022-09-13T02:14:54.589Z,161
2022-09-13T02:15:27.118Z,168
2022-09-13T02:15:49.754Z,186
2022-09-13T02:16:12.287Z,169
2022-09-13T02:16:47.451Z,175
2022-09-13T02:17:24.392Z,167
2022-09-13T02:17:50.700Z,187
2022-09-13T02:18:22.974Z,157
2022-09-13T02:18:55.002Z,166
2022-09-13T02:19:27.458Z,178
2022-09-13T02:19:50.096Z,180
2022-09-13T02:20:12.788Z,201
2022-09-13T02:20:46.593Z,155
2022-09-13T02:21:18.692Z,146
2022-09-13T02:21:50.468Z,99
2022-09-13T02:22:22.885Z,148
2022-09-13T02:22:54.454Z,152
2022-09-13T02:23:26.596Z,151
2022-09-13T02:23:49.483Z,172
2022-09-13T02:24:11.750Z,164
2022-09-13T02:24:47.098Z,156
2022-09-13T02:25:18.580Z,149
2022-09-13T02:25:51.294Z,179
2022-09-13T02:26:23.216Z,172
2022-09-13T02:26:54.741Z,139
2022-09-13T02:27:26.782Z,189
2022-09-13T02:27:49.374Z,185
2022-09-13T02:28:11.949Z,162
2022-09-13T02:28:46.754Z,167
2022-09-13T02:29:19.201Z,145
2022-09-13T02:29:50.799Z,169
2022-09-13T02:30:22.563Z,156
2022-09-13T02:30:54.548Z,143
2022-09-13T02:31:26.859Z,146
2022-09-13T02:31:49.452Z,165
2022-09-13T02:32:12.405Z,166
2022-09-13T02:32:46.870Z,190
2022-09-13T02:33:18.891Z,168
2022-09-13T02:33:51.517Z,172
2022-09-13T02:34:22.912Z,167
2022-09-13T02:34:54.919Z,166
2022-09-13T02:35:26.590Z,166
2022-09-13T02:35:49.340Z,173
2022-09-13T02:36:12.528Z,169
2022-09-13T02:36:47.330Z,168
2022-09-13T02:37:18.903Z,161
2022-09-13T02:37:53.168Z,163
2022-09-13T02:38:22.885Z,107
2022-09-13T02:38:54.556Z,163
2022-09-13T02:39:26.944Z,156
2022-09-13T02:39:50.024Z,170
2022-09-13T02:40:12.706Z,175
2022-09-13T02:40:48.584Z,158
2022-09-13T02:41:20.638Z,176
2022-09-13T02:41:50.855Z,161
2022-09-13T02:42:24.079Z,142
2022-09-13T02:42:55.101Z,159
2022-09-13T02:43:26.942Z,157
2022-09-13T02:43:49.646Z,203
2022-09-13T02:44:12.485Z,158
2022-09-13T02:44:48.434Z,192
2022-09-13T02:45:18.716Z,125
2022-09-13T02:45:50.564Z,24
2022-09-13T02:46:22.605Z,143
2022-09-13T02:46:54.518Z,134
2022-09-13T02:47:26.783Z,135
2022-09-13T02:47:49.415Z,153
2022-09-13T02:48:11.900Z,170
2022-09-13T02:48:49.236Z,187
2022-09-13T02:49:18.545Z,159
2022-09-13T02:49:50.932Z,123
2022-09-13T02:50:22.539Z,70
2022-09-13T02:50:54.586Z,114
2022-09-13T02:51:26.548Z,98
2022-09-13T02:51:49.461Z,262
2022-09-13T02:52:11.651Z,7
2022-09-13T02:52:46.598Z,318
2022-09-13T02:53:18.584Z,26
2022-09-13T02:53:50.390Z,153
2022-09-13T02:54:23.092Z,175
2022-09-13T02:54:54.821Z,92
2022-09-13T02:55:27.508Z,39
2022-09-13T02:55:50.120Z,35
2022-09-13T02:56:13.007Z,31
2022-09-13T02:56:47.297Z,9
2022-09-13T02:57:20.058Z,9
2022-09-13T02:57:50.738Z,90
2022-09-13T02:58:27.038Z,55
2022-09-13T02:58:54.679Z,10
2022-09-13T02:59:26.555Z,355
2022-09-13T02:59:50.752Z,355
2022-09-13T03:00:13.044Z,359
2022-09-13T03:00:46.635Z,359
2022-09-13T03:01:18.715Z,357
2022-09-13T03:01:51.129Z,343
2022-09-13T03:02:22.565Z,21
2022-09-13T03:02:54.538Z,22
2022-09-13T03:03:27.163Z,30
2022-09-13T03:03:51.389Z,25
2022-09-13T03:04:12.658Z,20
2022-09-13T03:04:47.367Z,22
2022-09-13T03:05:18.550Z,20
2022-09-13T03:05:51.388Z,24
2022-09-13T03:06:22.532Z,19
2022-09-13T03:06:55.270Z,39
2022-09-13T03:07:26.775Z,37
2022-09-13T03:07:51.845Z,44
2022-09-13T03:08:12.300Z,38
2022-09-13T03:08:46.754Z,40
2022-09-13T03:09:18.698Z,38
2022-09-13T03:09:51.944Z,59
2022-09-13T03:10:23.627Z,57
2022-09-13T03:10:54.784Z,55
2022-09-13T03:11:26.633Z,55
2022-09-13T03:11:49.273Z,55
2022-09-13T03:12:11.608Z,55
2022-09-13T03:12:47.513Z,57
2022-09-13T03:13:18.687Z,57
2022-09-13T03:13:52.731Z,57
2022-09-13T03:14:22.511Z,57
2022-09-13T03:14:56.805Z,42
2022-09-13T03:15:26.662Z,42
2022-09-13T03:15:49.138Z,41
2022-09-13T03:16:11.441Z,38
2022-09-13T03:16:47.206Z,36
2022-09-13T03:17:18.593Z,34
2022-09-13T03:17:53.298Z,34
2022-09-13T03:18:23.600Z,34
2022-09-13T03:18:54.620Z,34
2022-09-13T03:19:27.407Z,34
2022-09-13T03:19:50.030Z,34
2022-09-13T03:20:13.828Z,39
2022-09-13T03:20:46.482Z,39
2022-09-13T03:21:18.716Z,38
2022-09-13T03:21:50.668Z,38
2022-09-13T03:22:22.463Z,38
2022-09-13T03:22:54.477Z,38
2022-09-13T03:23:26.631Z,38
2022-09-13T03:23:49.217Z,38
2022-09-13T03:24:11.855Z,37
2022-09-13T03:24:46.669Z,38
2022-09-13T03:25:18.716Z,44
2022-09-13T03:25:50.896Z,44
2022-09-13T03:26:22.905Z,36
2022-09-13T03:26:54.717Z,42
2022-09-13T03:27:26.893Z,38
2022-09-13T03:27:49.726Z,38
2022-09-13T03:28:12.157Z,38
2022-09-13T03:28:46.632Z,32
2022-09-13T03:29:18.721Z,33
2022-09-13T03:29:51.103Z,30
2022-09-13T03:30:23.158Z,26
2022-09-13T03:30:54.898Z,28
2022-09-13T03:31:26.990Z,26
2022-09-13T03:31:49.588Z,27
2022-09-13T03:32:12.346Z,27
2022-09-13T03:32:46.938Z,27
2022-09-13T03:33:19.052Z,27
2022-09-13T03:33:50.676Z,28
2022-09-13T03:34:22.940Z,31
2022-09-13T03:34:55.629Z,32
2022-09-13T03:35:26.486Z,44
2022-09-13T03:35:49.272Z,44
2022-09-13T03:36:11.885Z,50
2022-09-13T03:36:47.286Z,49
2022-09-13T03:37:18.503Z,50
2022-09-13T03:37:51.989Z,51
2022-09-13T03:38:22.524Z,59
2022-09-13T03:38:55.930Z,57
2022-09-13T03:39:26.791Z,49
2022-09-13T03:39:49.411Z,47
2022-09-13T03:40:12.382Z,51
2022-09-13T03:40:47.108Z,51
2022-09-13T03:41:21.147Z,50
2022-09-13T03:41:50.583Z,70
2022-09-13T03:42:24.150Z,66
2022-09-13T03:42:57.074Z,62
2022-09-13T03:43:26.730Z,59
2022-09-13T03:43:49.545Z,58
2022-09-13T03:44:11.809Z,73
2022-09-13T03:44:47.281Z,75
2022-09-13T03:45:18.590Z,69
2022-09-13T03:45:50.494Z,61
2022-09-13T03:46:22.534Z,70
2022-09-13T03:46:57.195Z,75
2022-09-13T03:47:26.971Z,47
2022-09-13T03:47:49.600Z,64
2022-09-13T03:48:12.558Z,65
2022-09-13T03:48:46.591Z,54
2022-09-13T03:49:18.940Z,55
2022-09-13T03:49:50.497Z,68
2022-09-13T03:50:22.460Z,62
2022-09-13T03:50:54.460Z,94
2022-09-13T03:51:26.584Z,76
2022-09-13T03:51:49.417Z,89
2022-09-13T03:52:11.799Z,95
2022-09-13T03:52:46.699Z,76
2022-09-13T03:53:18.629Z,69
2022-09-13T03:53:50.608Z,83
2022-09-13T03:54:22.495Z,79
2022-09-13T03:54:55.186Z,74
2022-09-13T03:55:26.919Z,61
2022-09-13T03:55:51.059Z,76
2022-09-13T03:56:12.130Z,52
2022-09-13T03:56:47.800Z,52
2022-09-13T03:57:18.474Z,91
2022-09-13T03:57:50.861Z,75
2022-09-13T03:58:22.493Z,64
2022-09-13T03:58:54.708Z,77
2022-09-13T03:59:26.587Z,119
2022-09-13T03:59:49.393Z,73
2022-09-13T04:00:11.688Z,38
2022-09-13T04:00:46.751Z,32
2022-09-13T04:01:18.463Z,33
2022-09-13T04:01:50.829Z,134
2022-09-13T04:02:22.849Z,119
2022-09-13T04:02:55.165Z,114
2022-09-13T04:03:27.370Z,157
2022-09-13T04:03:53.322Z,164
2022-09-13T04:04:13.407Z,178
2022-09-13T04:04:47.133Z,153
2022-09-13T04:05:19.004Z,193
2022-09-13T04:05:50.583Z,180
2022-09-13T04:06:23.590Z,166
2022-09-13T04:06:54.859Z,172
2022-09-13T04:07:26.721Z,170
2022-09-13T04:07:49.527Z,169
2022-09-13T04:08:11.997Z,150
2022-09-13T04:08:47.382Z,189
2022-09-13T04:09:18.337Z,180
2022-09-13T04:09:50.454Z,167
2022-09-13T04:10:22.881Z,160
2022-09-13T04:10:55.242Z,167
2022-09-13T04:11:26.693Z,175
2022-09-13T04:11:49.395Z,138
2022-09-13T04:12:12.290Z,142
2022-09-13T04:12:46.481Z,183
2022-09-13T04:13:18.590Z,181
2022-09-13T04:13:50.552Z,166
2022-09-13T04:14:23.316Z,219
2022-09-13T04:14:54.459Z,214
2022-09-13T04:15:27.525Z,184
2022-09-13T04:15:50.147Z,159
2022-09-13T04:16:12.909Z,176
2022-09-13T04:16:47.226Z,152
2022-09-13T04:17:18.500Z,175
2022-09-13T04:17:51.413Z,185
2022-09-13T04:18:22.692Z,158
2022-09-13T04:18:54.909Z,160
2022-09-13T04:19:26.792Z,158
2022-09-13T04:19:49.323Z,152
2022-09-13T04:20:12.799Z,148
2022-09-13T04:20:46.336Z,151
2022-09-13T04:21:18.559Z,166
2022-09-13T04:21:50.878Z,156
2022-09-13T04:22:22.725Z,172
2022-09-13T04:22:54.600Z,164
2022-09-13T04:23:26.977Z,169
2022-09-13T04:23:49.546Z,165
2022-09-13T04:24:12.057Z,152
2022-09-13T04:24:46.606Z,155
2022-09-13T04:25:18.579Z,142
2022-09-13T04:25:51.342Z,222
2022-09-13T04:26:22.404Z,153
2022-09-13T04:26:54.653Z,192
2022-09-13T04:27:26.643Z,127
2022-09-13T04:27:49.310Z,136
2022-09-13T04:28:11.986Z,71
2022-09-13T04:28:46.546Z,146
2022-09-13T04:29:19.246Z,163
2022-09-13T04:29:50.639Z,111
2022-09-13T04:30:23.678Z,147
2022-09-13T04:30:54.673Z,153
2022-09-13T04:31:26.830Z,224
2022-09-13T04:31:49.543Z,270
2022-09-13T04:32:11.866Z,139
2022-09-13T04:32:46.495Z,156
2022-09-13T04:33:18.415Z,159
2022-09-13T04:33:50.958Z,169
2022-09-13T04:34:22.697Z,177
2022-09-13T04:34:54.814Z,145
2022-09-13T04:35:26.833Z,355
2022-09-13T04:35:49.553Z,138
2022-09-13T04:36:12.567Z,191
2022-09-13T04:36:46.868Z,141
2022-09-13T04:37:18.816Z,146
2022-09-13T04:37:51.256Z,149
2022-09-13T04:38:22.469Z,141
2022-09-13T04:38:54.970Z,157
2022-09-13T04:39:26.777Z,162
2022-09-13T04:39:49.392Z,164
2022-09-13T04:40:11.851Z,141
2022-09-13T04:40:47.362Z,163
2022-09-13T04:41:21.035Z,131
2022-09-13T04:41:50.896Z,114
2022-09-13T04:42:23.922Z,153
2022-09-13T04:42:54.634Z,172
2022-09-13T04:43:26.507Z,159
2022-09-13T04:43:49.222Z,160
2022-09-13T04:44:11.757Z,138
2022-09-13T04:44:46.464Z,131
2022-09-13T04:45:18.713Z,152
2022-09-13T04:45:50.417Z,175
2022-09-13T04:46:22.392Z,176
2022-09-13T04:46:54.576Z,148
2022-09-13T04:47:27.504Z,163
2022-09-13T04:47:50.020Z,151
2022-09-13T04:48:12.654Z,185
2022-09-13T04:48:46.560Z,201
2022-09-13T04:49:18.721Z,161
2022-09-13T04:49:50.986Z,158
2022-09-13T04:50:22.484Z,153
2022-09-13T04:50:54.897Z,149
2022-09-13T04:51:26.488Z,140
2022-09-13T04:51:49.149Z,157
2022-09-13T04:52:12.030Z,209
2022-09-13T04:52:46.439Z,184
2022-09-13T04:53:18.804Z,173
2022-09-13T04:53:50.684Z,172
2022-09-13T04:54:22.429Z,145
2022-09-13T04:54:54.586Z,183
2022-09-13T04:55:27.335Z,163
2022-09-13T04:55:50.245Z,139
2022-09-13T04:56:12.523Z,161
2022-09-13T04:56:47.297Z,93
2022-09-13T04:57:18.496Z,28
2022-09-13T04:57:51.479Z,145
2022-09-13T04:58:22.533Z,164
2022-09-13T04:58:54.457Z,93
2022-09-13T04:59:26.484Z,194
2022-09-13T04:59:49.249Z,242
2022-09-13T05:00:11.961Z,108
2022-09-13T05:00:46.435Z,119
2022-09-13T05:01:18.849Z,141
2022-09-13T05:01:50.773Z,167
2022-09-13T05:02:23.233Z,227
2022-09-13T05:02:54.658Z,133
2022-09-13T05:03:27.387Z,235
2022-09-13T05:03:49.992Z,163
2022-09-13T05:04:12.964Z,162
2022-09-13T05:04:47.921Z,139
2022-09-13T05:05:18.530Z,148
2022-09-13T05:05:51.155Z,166
2022-09-13T05:06:22.431Z,152
2022-09-13T05:06:55.391Z,191
2022-09-13T05:07:26.706Z,111
2022-09-13T05:07:49.124Z,169
2022-09-13T05:08:12.168Z,153
2022-09-13T05:08:46.553Z,130
2022-09-13T05:09:18.446Z,104
2022-09-13T05:09:50.440Z,110
2022-09-13T05:10:22.940Z,128
2022-09-13T05:10:54.966Z,154
2022-09-13T05:11:26.691Z,166
2022-09-13T05:11:49.389Z,146
2022-09-13T05:12:12.015Z,150
2022-09-13T05:12:46.984Z,158
2022-09-13T05:13:18.523Z,131
2022-09-13T05:13:51.305Z,143
2022-09-13T05:14:22.427Z,129
2022-09-13T05:14:56.352Z,217
2022-09-13T05:15:26.914Z,133
2022-09-13T05:15:49.732Z,135
2022-09-13T05:16:12.081Z,172
2022-09-13T05:16:46.935Z,195
2022-09-13T05:17:18.893Z,169
2022-09-13T05:17:50.993Z,179
2022-09-13T05:18:23.231Z,153
2022-09-13T05:18:54.765Z,178
2022-09-13T05:19:26.554Z,139
2022-09-13T05:19:49.201Z,189
2022-09-13T05:20:11.560Z,156
2022-09-13T05:20:48.005Z,325
2022-09-13T05:21:18.571Z,154
2022-09-13T05:21:50.487Z,80
2022-09-13T05:22:22.479Z,171
2022-09-13T05:22:54.622Z,100
2022-09-13T05:23:28.011Z,155
2022-09-13T05:23:49.455Z,230
2022-09-13T05:24:12.140Z,157
2022-09-13T05:24:46.610Z,181
2022-09-13T05:25:21.095Z,164
2022-09-13T05:25:50.996Z,9
2022-09-13T05:26:23.077Z,135
2022-09-13T05:26:54.770Z,142
2022-09-13T05:27:27.400Z,62
2022-09-13T05:27:49.941Z,190
2022-09-13T05:28:12.728Z,50
2022-09-13T05:28:47.043Z,15
2022-09-13T05:29:18.550Z,327
2022-09-13T05:29:52.773Z,253
2022-09-13T05:30:22.449Z,276
2022-09-13T05:30:54.809Z,0
2022-09-13T05:31:26.787Z,15
2022-09-13T05:31:49.267Z,5
2022-09-13T05:32:13.424Z,355
2022-09-13T05:32:46.364Z,12
2022-09-13T05:33:19.509Z,16
2022-09-13T05:33:50.587Z,16
2022-09-13T05:34:22.531Z,307
2022-09-13T05:34:54.913Z,264
2022-09-13T05:35:27.765Z,303
2022-09-13T05:35:50.469Z,282
2022-09-13T05:36:13.756Z,330
2022-09-13T05:36:50.469Z,327
2022-09-13T05:37:18.421Z,152
2022-09-13T05:37:53.053Z,85
2022-09-13T05:38:22.591Z,315
2022-09-13T05:39:12.108Z,329
2022-09-13T05:39:33.847Z,51
2022-09-13T05:40:10.248Z,169
2022-09-13T05:40:30.811Z,285
2022-09-13T05:40:53.184Z,263
2022-09-13T05:41:17.247Z,303
2022-09-13T05:41:50.787Z,245
2022-09-13T05:42:25.122Z,325
2022-09-13T05:42:54.823Z,254
2022-09-13T05:43:27.294Z,287
2022-09-13T05:43:50.063Z,211
2022-09-13T05:44:15.004Z,282
2022-09-13T05:44:55.321Z,31
2022-09-13T05:45:17.804Z,28
2022-09-13T05:45:50.389Z,52
2022-09-13T05:46:22.573Z,54
2022-09-13T05:46:54.365Z,42
2022-09-13T05:47:26.452Z,43
2022-09-13T05:47:49.204Z,21
2022-09-13T05:48:11.446Z,29
2022-09-13T05:48:46.502Z,65
2022-09-13T05:49:18.877Z,19
2022-09-13T05:50:09.324Z,13
2022-09-13T05:50:45.059Z,19
2022-09-13T05:51:01.148Z,11
2022-09-13T05:51:23.563Z,355
2022-09-13T05:51:54.602Z,4
2022-09-13T05:52:30.638Z,15
2022-09-13T05:52:53.245Z,16
2022-09-13T05:53:17.026Z,8
2022-09-13T05:53:50.418Z,107
2022-09-13T05:54:22.572Z,142
2022-09-13T05:54:54.443Z,70
2022-09-13T05:55:26.458Z,120
2022-09-13T05:55:49.237Z,142
2022-09-13T05:56:15.819Z,129
2022-09-13T05:56:46.604Z,98
2022-09-13T05:57:18.321Z,39
2022-09-13T05:57:50.484Z,321
2022-09-13T05:58:22.397Z,311
2022-09-13T05:58:54.493Z,334
2022-09-13T05:59:26.341Z,270
2022-09-13T05:59:49.843Z,266
2022-09-13T06:00:12.422Z,333
2022-09-13T06:00:46.557Z,320
2022-09-13T06:01:18.543Z,221
2022-09-13T06:01:50.572Z,259
2022-09-13T06:02:22.588Z,252
2022-09-13T06:02:54.509Z,275
2022-09-13T06:03:26.656Z,216
2022-09-13T06:03:49.316Z,234
2022-09-13T06:04:14.283Z,285
2022-09-13T06:04:46.502Z,344
2022-09-13T06:05:19.062Z,354
2022-09-13T06:05:50.328Z,220
2022-09-13T06:06:22.487Z,216
2022-09-13T06:06:54.412Z,258
2022-09-13T06:07:26.329Z,257
2022-09-13T06:07:50.365Z,235
2022-09-13T06:08:12.602Z,282
2022-09-13T06:08:46.374Z,248
2022-09-13T06:09:19.830Z,256
2022-09-13T06:09:50.561Z,280
2022-09-13T06:10:22.426Z,253
2022-09-13T06:10:54.525Z,244
2022-09-13T06:11:26.667Z,249
2022-09-13T06:11:48.916Z,265
2022-09-13T06:12:11.487Z,277
2022-09-13T06:12:46.471Z,40
2022-09-13T06:13:20.463Z,50
2022-09-13T06:13:50.563Z,38
2022-09-13T06:14:22.662Z,39
2022-09-13T06:14:54.695Z,49
2022-09-13T06:15:26.365Z,43
2022-09-13T06:15:49.808Z,52
2022-09-13T06:16:12.199Z,56
2022-09-13T06:16:46.450Z,45
2022-09-13T06:17:20.974Z,41
2022-09-13T06:17:50.247Z,38
2022-09-13T06:18:22.558Z,16
2022-09-13T06:18:54.535Z,355
2022-09-13T06:19:26.466Z,12
2022-09-13T06:19:49.076Z,16
2022-09-13T06:20:11.379Z,26
2022-09-13T06:20:46.452Z,26
2022-09-13T06:21:24.659Z,44
2022-09-13T06:21:50.926Z,33
2022-09-13T06:22:22.858Z,38
2022-09-13T06:22:54.302Z,68
2022-09-13T06:23:26.464Z,135
2022-09-13T06:23:49.219Z,125
2022-09-13T06:24:11.874Z,43
2022-09-13T06:24:46.476Z,38
2022-09-13T06:25:18.373Z,31
2022-09-13T06:25:52.774Z,30
2022-09-13T06:26:22.620Z,18
2022-09-13T06:26:54.337Z,337
2022-09-13T06:27:26.409Z,344
2022-09-13T06:27:50.243Z,339
2022-09-13T06:28:11.592Z,266
2022-09-13T06:28:46.446Z,281
2022-09-13T06:29:18.335Z,298
2022-09-13T06:29:50.388Z,278
2022-09-13T06:30:22.960Z,254
2022-09-13T06:30:54.500Z,266
2022-09-13T06:31:26.405Z,312
2022-09-13T06:31:49.056Z,250
2022-09-13T06:32:11.388Z,285
2022-09-13T06:32:46.722Z,229
2022-09-13T06:33:18.435Z,172
2022-09-13T06:33:50.401Z,247
2022-09-13T06:34:25.962Z,249
2022-09-13T06:34:54.396Z,299
2022-09-13T06:35:26.560Z,277
2022-09-13T06:35:49.876Z,260
2022-09-13T06:36:11.976Z,199
2022-09-13T06:36:46.376Z,224
2022-09-13T06:37:18.406Z,305
2022-09-13T06:37:52.722Z,326
2022-09-13T06:38:24.422Z,356
2022-09-13T06:38:54.343Z,346
2022-09-13T06:39:26.629Z,356
2022-09-13T06:39:50.976Z,350
2022-09-13T06:40:11.746Z,353
2022-09-13T06:40:46.562Z,8
2022-09-13T06:41:18.419Z,9
2022-09-13T06:41:51.894Z,11
2022-09-13T06:42:27.430Z,30
2022-09-13T06:42:54.501Z,29
2022-09-13T06:43:26.502Z,29
2022-09-13T06:43:49.147Z,29
2022-09-13T06:44:11.645Z,27
2022-09-13T06:44:46.484Z,27
2022-09-13T06:45:18.485Z,25
2022-09-13T06:45:50.546Z,20
2022-09-13T06:46:25.310Z,359
2022-09-13T06:46:54.685Z,7
2022-09-13T06:47:26.377Z,9
2022-09-13T06:47:49.661Z,9
2022-09-13T06:48:12.159Z,10
2022-09-13T06:48:46.482Z,66
2022-09-13T06:49:18.428Z,51
2022-09-13T06:49:50.252Z,36
2022-09-13T06:50:22.471Z,28
2022-09-13T06:50:54.355Z,28
2022-09-13T06:51:26.712Z,28
2022-09-13T06:51:49.096Z,29
2022-09-13T06:52:11.497Z,12
2022-09-13T06:52:46.339Z,264
2022-09-13T06:53:18.361Z,278
2022-09-13T06:53:50.290Z,285
2022-09-13T06:54:22.354Z,298
2022-09-13T06:54:54.474Z,329
2022-09-13T06:55:27.091Z,328
2022-09-13T06:55:49.570Z,329
2022-09-13T06:56:11.848Z,309
2022-09-13T06:56:46.367Z,327
2022-09-13T06:57:18.733Z,343
2022-09-13T06:57:50.317Z,314
2022-09-13T06:58:22.353Z,282
2022-09-13T06:58:54.307Z,259
2022-09-13T06:59:27.928Z,284
2022-09-13T06:59:49.300Z,292